createdAt,value
2022-08-12T00:02:04.217Z,2.72
2022-08-12T00:04:52.600Z,2.22
2022-08-12T00:07:38.936Z,2.13
2022-08-12T00:10:25.149Z,2.20
2022-08-12T00:13:12.795Z,2.05
2022-08-12T00:16:01.743Z,2.10
2022-08-12T00:18:47.453Z,2.17
2022-08-12T00:21:36.085Z,2.35
2022-08-12T00:24:23.223Z,2.10
2022-08-12T00:27:09.330Z,1.88
2022-08-12T00:29:55.043Z,2.42
2022-08-12T00:32:48.994Z,2.10
2022-08-12T00:35:40.497Z,2.00
2022-08-12T00:38:25.715Z,2.22
2022-08-12T00:41:11.873Z,2.17
2022-08-12T00:43:38.649Z,2.25
2022-08-12T00:46:23.823Z,2.40
2022-08-12T00:48:52.064Z,2.70
2022-08-12T00:51:19.943Z,2.28
2022-08-12T00:53:47.415Z,2.28
2022-08-12T00:56:14.459Z,2.30
2022-08-12T00:58:47.889Z,2.10
2022-08-12T01:01:15.433Z,2.13
2022-08-12T01:04:04.553Z,3.10
2022-08-12T01:06:53.792Z,2.55
2022-08-12T01:09:40.868Z,2.13
2022-08-12T01:12:09.369Z,2.33
2022-08-12T01:14:38.806Z,2.20
2022-08-12T01:17:05.898Z,1.92
2022-08-12T01:19:33.312Z,2.10
2022-08-12T01:22:42.779Z,2.17
2022-08-12T01:25:18.336Z,2.20
2022-08-12T01:27:49.893Z,2.70
2022-08-12T01:30:17.799Z,3.03
2022-08-12T01:32:47.638Z,2.72
2022-08-12T01:35:16.225Z,2.33
2022-08-12T01:37:48.732Z,2.50
2022-08-12T01:40:33.580Z,2.60
2022-08-12T01:43:10.705Z,2.70
2022-08-12T01:45:45.805Z,2.60
2022-08-12T01:48:43.750Z,2.50
2022-08-12T01:52:15.305Z,2.42
2022-08-12T01:54:41.595Z,2.75
2022-08-12T01:57:59.776Z,2.60
2022-08-12T02:00:13.680Z,2.70
2022-08-12T02:02:55.214Z,2.63
2022-08-12T02:06:12.786Z,3.22
2022-08-12T02:09:14.620Z,3.05
2022-08-12T02:12:06.274Z,3.03
2022-08-12T02:14:56.942Z,3.25
2022-08-12T02:17:56.328Z,2.63
2022-08-12T02:20:48.865Z,2.90
2022-08-12T02:23:23.305Z,2.72
2022-08-12T02:25:55.133Z,2.90
2022-08-12T02:28:22.207Z,3.17
2022-08-12T02:30:49.164Z,2.70
2022-08-12T02:33:18.531Z,2.75
2022-08-12T02:35:45.633Z,2.55
2022-08-12T02:38:12.648Z,3.08
2022-08-12T02:40:42.776Z,2.75
2022-08-12T02:43:51.317Z,3.22
2022-08-12T02:46:27.827Z,3.08
2022-08-12T02:49:21.703Z,2.78
2022-08-12T02:51:48.252Z,3.20
2022-08-12T02:54:15.311Z,2.92
2022-08-12T02:56:50.530Z,3.20
2022-08-12T02:59:21.703Z,3.08
2022-08-12T03:02:03.461Z,2.95
2022-08-12T03:04:42.944Z,2.90
2022-08-12T03:07:16.543Z,3.00
2022-08-12T03:10:04.434Z,3.08
2022-08-12T03:12:40.721Z,2.42
2022-08-12T03:15:18.721Z,2.83
2022-08-12T03:18:25.386Z,3.38
2022-08-12T03:20:49.747Z,2.85
2022-08-12T03:23:27.378Z,2.88
2022-08-12T03:25:58.692Z,3.28
2022-08-12T03:28:43.987Z,3.10
2022-08-12T03:31:11.154Z,3.30
2022-08-12T03:33:40.439Z,3.20
2022-08-12T03:36:08.864Z,3.00
2022-08-12T03:38:40.264Z,3.20
2022-08-12T03:41:34.959Z,3.20
2022-08-12T03:44:49.654Z,2.70
2022-08-12T03:47:52.159Z,3.28
2022-08-12T03:50:38.496Z,2.97
2022-08-12T03:53:26.455Z,3.50
2022-08-12T03:56:12.544Z,3.63
2022-08-12T03:58:58.631Z,2.90
2022-08-12T04:01:26.908Z,3.30
2022-08-12T04:03:54.688Z,3.17
2022-08-12T04:06:35.316Z,3.47
2022-08-12T04:09:16.267Z,2.90
2022-08-12T04:12:04.202Z,3.22
2022-08-12T04:14:32.209Z,2.97
2022-08-12T04:16:59.383Z,3.30
2022-08-12T04:19:26.609Z,3.80
2022-08-12T04:22:02.018Z,3.28
2022-08-12T04:24:34.737Z,3.55
2022-08-12T04:27:05.450Z,3.80
2022-08-12T04:30:21.084Z,3.50
2022-08-12T04:32:18.815Z,3.00
2022-08-12T04:34:45.836Z,3.83
2022-08-12T04:37:12.974Z,3.92
2022-08-12T04:39:40.431Z,3.50
2022-08-12T04:42:07.290Z,3.50
2022-08-12T04:44:34.039Z,3.75
2022-08-12T04:47:00.867Z,3.30
2022-08-12T04:49:27.929Z,3.25
2022-08-12T04:51:59.451Z,3.40
2022-08-12T04:54:27.472Z,2.72
2022-08-12T04:57:04.002Z,2.92
2022-08-12T04:59:48.053Z,3.30
2022-08-12T05:02:21.555Z,3.33
2022-08-12T05:04:51.659Z,3.25
2022-08-12T05:07:19.282Z,3.55
2022-08-12T05:09:58.700Z,2.97
2022-08-12T05:12:32.794Z,3.42
2022-08-12T05:15:00.666Z,3.60
2022-08-12T05:17:28.314Z,3.67
2022-08-12T05:19:57.394Z,3.25
2022-08-12T05:22:26.120Z,3.30
2022-08-12T05:24:53.072Z,3.47
2022-08-12T05:27:19.673Z,2.90
2022-08-12T05:30:06.759Z,2.92
2022-08-12T05:32:36.666Z,3.15
2022-08-12T05:35:06.731Z,3.38
2022-08-12T05:37:35.081Z,3.08
2022-08-12T05:40:08.252Z,3.22
2022-08-12T05:42:37.629Z,2.78
2022-08-12T05:45:05.380Z,2.90
2022-08-12T05:47:44.867Z,2.90
2022-08-12T05:50:19.822Z,3.28
2022-08-12T05:52:48.355Z,3.13
2022-08-12T05:55:15.335Z,2.95
2022-08-12T05:57:44.386Z,2.72
2022-08-12T06:00:11.387Z,3.00
2022-08-12T06:02:37.953Z,2.70
2022-08-12T06:05:10.488Z,2.53
2022-08-12T06:08:02.342Z,3.67
2022-08-12T06:10:31.566Z,2.55
2022-08-12T06:13:01.103Z,3.00
2022-08-12T06:15:27.877Z,2.85
2022-08-12T06:17:55.405Z,2.55
2022-08-12T06:20:28.933Z,2.58
2022-08-12T06:22:56.704Z,2.42
2022-08-12T06:25:28.936Z,2.40
2022-08-12T06:28:06.556Z,2.55
2022-08-12T06:30:38.502Z,2.55
2022-08-12T06:33:24.831Z,2.75
2022-08-12T06:35:57.394Z,2.45
2022-08-12T06:38:26.744Z,2.47
2022-08-12T06:41:17.508Z,2.45
2022-08-12T06:44:06.400Z,2.40
2022-08-12T06:46:32.645Z,2.28
2022-08-12T06:48:59.934Z,1.98
2022-08-12T06:51:32.060Z,2.38
2022-08-12T06:54:00.679Z,2.22
2022-08-12T06:56:46.317Z,2.90
2022-08-12T06:59:15.608Z,2.30
2022-08-12T07:01:49.861Z,2.45
2022-08-12T07:04:36.267Z,2.38
2022-08-12T07:07:05.473Z,2.20
2022-08-12T07:09:59.487Z,2.50
2022-08-12T07:12:19.817Z,2.30
2022-08-12T07:14:50.587Z,2.53
2022-08-12T07:17:17.635Z,2.38
2022-08-12T07:19:46.634Z,2.25
2022-08-12T07:22:14.146Z,1.75
2022-08-12T07:24:40.848Z,2.85
2022-08-12T07:27:07.429Z,2.10
2022-08-12T07:29:59.989Z,2.22
2022-08-12T07:32:24.380Z,2.17
2022-08-12T07:34:51.141Z,2.30
2022-08-12T07:37:17.881Z,2.20
2022-08-12T07:39:51.222Z,2.25
2022-08-12T07:42:26.996Z,2.28
2022-08-12T07:44:53.669Z,2.03
2022-08-12T07:47:20.331Z,2.88
2022-08-12T07:50:05.873Z,2.50
2022-08-12T07:52:38.327Z,2.38
2022-08-12T07:55:06.976Z,2.28
2022-08-12T07:57:34.227Z,1.98
2022-08-12T08:00:03.534Z,2.13
2022-08-12T08:02:33.509Z,2.40
2022-08-12T08:05:00.786Z,2.50
2022-08-12T08:07:30.516Z,13.68
2022-08-12T08:10:03.794Z,7.82
2022-08-12T08:13:03.225Z,2.40
2022-08-12T08:16:01.364Z,2.30
2022-08-12T08:18:25.937Z,2.38
2022-08-12T08:20:53.725Z,2.50
2022-08-12T08:23:20.258Z,3.30
2022-08-12T08:25:49.948Z,2.42
2022-08-12T08:28:17.205Z,2.60
2022-08-12T08:30:47.686Z,2.42
2022-08-12T08:33:23.492Z,2.30
2022-08-12T08:36:02.024Z,2.38
2022-08-12T08:38:33.011Z,1.85
2022-08-12T08:42:17.087Z,2.10
2022-08-12T08:44:11.084Z,1.58
2022-08-12T08:46:38.663Z,2.08
2022-08-12T08:49:05.849Z,2.30
2022-08-12T08:51:32.806Z,1.70
2022-08-12T08:53:59.422Z,1.85
2022-08-12T08:56:27.092Z,1.88
2022-08-12T08:58:53.702Z,1.77
2022-08-12T09:01:22.365Z,2.08
2022-08-12T09:05:08.343Z,2.10
2022-08-12T09:06:39.475Z,2.30
2022-08-12T09:09:13.334Z,1.92
2022-08-12T09:12:11.220Z,2.00
2022-08-12T09:17:42.028Z,1.90
2022-08-12T09:20:10.875Z,1.98
2022-08-12T09:22:49.108Z,2.40
2022-08-12T09:28:06.130Z,2.15
2022-08-12T09:30:41.041Z,2.40
2022-08-12T09:33:18.343Z,2.40
2022-08-12T09:36:04.742Z,2.60
2022-08-12T09:38:33.642Z,2.65
2022-08-12T09:42:09.995Z,2.55
2022-08-12T09:44:39.354Z,2.55
2022-08-12T09:46:56.261Z,2.83
2022-08-12T09:49:26.919Z,2.60
2022-08-12T09:51:55.355Z,2.47
2022-08-12T09:54:33.718Z,2.40
2022-08-12T09:58:45.432Z,2.10
2022-08-12T10:00:16.973Z,2.20
2022-08-12T10:03:01.485Z,2.08
2022-08-12T10:06:19.752Z,2.00
2022-08-12T10:08:20.076Z,2.45
2022-08-12T10:11:07.365Z,2.13
2022-08-12T10:13:44.221Z,2.20
2022-08-12T10:16:22.070Z,1.75
2022-08-12T10:18:55.976Z,1.92
2022-08-12T10:21:37.976Z,1.90
2022-08-12T10:24:06.457Z,1.95
2022-08-12T10:26:52.769Z,1.80
2022-08-12T10:30:38.204Z,1.98
2022-08-12T10:32:44.158Z,1.80
2022-08-12T10:35:14.534Z,1.80
2022-08-12T10:38:32.538Z,2.10
2022-08-12T10:40:33.073Z,1.95
2022-08-12T10:43:19.621Z,1.80
2022-08-12T10:45:49.516Z,1.42
2022-08-12T10:48:26.869Z,2.10
2022-08-12T10:51:52.041Z,1.83
2022-08-12T10:53:52.709Z,1.65
2022-08-12T10:56:19.473Z,1.70
2022-08-12T10:58:48.801Z,1.83
2022-08-12T11:01:49.237Z,1.48
2022-08-12T11:04:19.819Z,1.42
2022-08-12T11:07:06.267Z,1.60
2022-08-12T11:09:55.893Z,1.60
2022-08-12T11:12:56.388Z,1.90
2022-08-12T11:15:20.660Z,1.63
2022-08-12T11:17:54.553Z,1.50
2022-08-12T11:20:24.169Z,1.55
2022-08-12T11:22:59.346Z,1.58
2022-08-12T11:25:55.865Z,1.58
2022-08-12T11:28:14.910Z,1.45
2022-08-12T11:30:42.911Z,1.40
2022-08-12T11:33:12.110Z,1.65
2022-08-12T11:35:51.294Z,1.48
2022-08-12T11:38:21.055Z,1.50
2022-08-12T11:40:47.682Z,1.35
2022-08-12T11:43:19.879Z,1.70
2022-08-12T11:45:47.714Z,1.83
2022-08-12T11:48:20.104Z,1.65
2022-08-12T11:50:54.448Z,1.40
2022-08-12T11:53:58.317Z,1.60
2022-08-12T11:56:08.064Z,1.50
2022-08-12T12:01:58.971Z,1.35
2022-08-12T12:02:01.024Z,1.58
2022-08-12T12:04:11.616Z,1.50
2022-08-12T12:06:38.776Z,1.63
2022-08-12T12:09:08.094Z,1.67
2022-08-12T12:11:48.749Z,1.50
2022-08-12T12:14:16.379Z,1.55
2022-08-12T12:16:50.004Z,1.50
2022-08-12T12:19:17.676Z,1.50
2022-08-12T12:21:47.113Z,1.67
2022-08-12T12:24:21.498Z,1.58
2022-08-12T12:27:00.931Z,1.33
2022-08-12T12:30:17.615Z,1.75
2022-08-12T12:32:29.505Z,1.50
2022-08-12T12:35:14.081Z,1.35
2022-08-12T12:38:11.844Z,1.65
2022-08-12T12:40:43.763Z,1.77
2022-08-12T12:43:12.329Z,1.67
2022-08-12T12:45:44.544Z,1.63
2022-08-12T12:48:15.660Z,1.33
2022-08-12T12:50:50.298Z,1.67
2022-08-12T12:54:06.918Z,1.60
2022-08-12T12:56:33.869Z,1.80
2022-08-12T12:59:03.322Z,1.50
2022-08-12T13:01:30.947Z,1.63
2022-08-12T13:04:01.713Z,1.65
2022-08-12T13:06:32.338Z,1.48
2022-08-12T13:09:03.101Z,1.67
2022-08-12T13:11:41.483Z,1.70
2022-08-12T13:14:28.397Z,1.55
2022-08-12T13:16:56.636Z,2.22
2022-08-12T13:19:36.485Z,1.20
2022-08-12T13:22:21.732Z,1.42
2022-08-12T13:24:55.663Z,1.60
2022-08-12T13:27:35.778Z,1.65
2022-08-12T13:30:06.980Z,1.70
2022-08-12T13:32:56.676Z,1.80
2022-08-12T13:35:33.311Z,1.85
2022-08-12T13:38:12.946Z,1.83
2022-08-12T13:40:40.376Z,1.70
2022-08-12T13:43:07.245Z,1.60
2022-08-12T13:45:35.351Z,1.70
2022-08-12T13:48:07.695Z,1.50
2022-08-12T13:50:37.441Z,1.90
2022-08-12T13:53:24.354Z,1.55
2022-08-12T13:56:01.605Z,1.45
2022-08-12T13:58:30.337Z,2.00
2022-08-12T14:00:58.342Z,1.60
2022-08-12T14:03:28.701Z,1.58
2022-08-12T14:06:15.527Z,1.60
2022-08-12T14:08:43.075Z,1.70
2022-08-12T14:11:12.529Z,1.67
2022-08-12T14:14:04.082Z,1.58
2022-08-12T14:16:37.477Z,1.67
2022-08-12T14:19:22.125Z,1.33
2022-08-12T14:21:59.728Z,1.58
2022-08-12T14:24:34.746Z,1.60
2022-08-12T14:27:02.128Z,1.60
2022-08-12T14:29:38.173Z,1.77
2022-08-12T14:32:17.418Z,1.70
2022-08-12T14:34:46.355Z,1.60
2022-08-12T14:37:58.107Z,1.60
2022-08-12T14:40:00.447Z,1.70
2022-08-12T14:42:28.220Z,1.85
2022-08-12T14:45:01.234Z,1.60
2022-08-12T14:47:34.941Z,1.90
2022-08-12T14:50:58.578Z,1.80
2022-08-12T14:58:28.274Z,1.77
2022-08-12T15:01:21.321Z,1.80
2022-08-12T15:03:53.930Z,1.95
2022-08-12T15:06:44.490Z,2.03
2022-08-12T15:09:16.399Z,1.95
2022-08-12T15:11:54.442Z,1.73
2022-08-12T15:14:26.523Z,1.90
2022-08-12T15:16:54.418Z,1.77
2022-08-12T15:20:17.985Z,1.83
2022-08-12T15:22:38.560Z,1.80
2022-08-12T15:24:54.471Z,1.65
2022-08-12T15:27:22.414Z,1.50
2022-08-12T15:29:58.129Z,1.90
2022-08-12T15:32:32.093Z,1.90
2022-08-12T15:35:00.515Z,1.50
2022-08-12T15:38:08.751Z,1.63
2022-08-12T15:40:14.139Z,1.80
2022-08-12T15:42:40.758Z,1.67
2022-08-12T15:45:23.563Z,1.73
2022-08-12T15:47:53.536Z,2.00
2022-08-12T15:50:41.177Z,1.88
2022-08-12T15:53:15.198Z,1.92
2022-08-12T15:55:45.719Z,2.10
2022-08-12T15:58:13.516Z,1.77
2022-08-12T16:00:43.842Z,2.05
2022-08-12T16:03:14.346Z,1.75
2022-08-12T16:06:17.255Z,1.95
2022-08-12T16:08:41.335Z,1.63
2022-08-12T16:11:15.538Z,1.70
2022-08-12T16:13:44.363Z,1.48
2022-08-12T16:16:22.513Z,1.70
2022-08-12T16:18:52.630Z,1.90
2022-08-12T16:21:51.258Z,1.63
2022-08-12T16:24:10.708Z,1.80
2022-08-12T16:26:39.397Z,2.00
2022-08-12T16:29:14.946Z,1.80
2022-08-12T16:31:42.810Z,1.50
2022-08-12T16:34:39.815Z,2.10
2022-08-12T16:37:03.091Z,1.90
2022-08-12T16:39:59.547Z,1.80
2022-08-12T16:42:22.368Z,1.58
2022-08-12T16:44:49.812Z,2.00
2022-08-12T16:47:16.756Z,1.50
2022-08-12T16:49:46.647Z,1.40
2022-08-12T16:52:14.454Z,1.85
2022-08-12T16:54:44.327Z,2.03
2022-08-12T16:57:11.518Z,1.65
2022-08-12T16:59:53.999Z,1.98
2022-08-12T17:02:33.650Z,1.65
2022-08-12T17:05:03.567Z,1.95
2022-08-12T17:07:36.482Z,1.30
2022-08-12T17:10:10.061Z,1.58
2022-08-12T17:12:38.988Z,1.75
2022-08-12T17:15:41.276Z,1.70
2022-08-12T17:18:38.818Z,1.38
2022-08-12T17:20:47.294Z,1.35
2022-08-12T17:23:16.618Z,1.60
2022-08-12T17:25:52.914Z,1.33
2022-08-12T17:28:24.169Z,1.30
2022-08-12T17:30:57.302Z,1.42
2022-08-12T17:33:27.308Z,1.10
2022-08-12T17:35:58.547Z,1.27
2022-08-12T17:38:26.100Z,1.48
2022-08-12T17:40:54.730Z,1.15
2022-08-12T17:43:54.981Z,1.50
2022-08-12T17:46:12.771Z,1.42
2022-08-12T17:48:55.580Z,1.20
2022-08-12T17:51:31.499Z,1.60
2022-08-12T17:54:05.976Z,1.40
2022-08-12T17:56:39.456Z,1.45
2022-08-12T17:59:09.663Z,1.52
2022-08-12T18:01:45.412Z,1.50
2022-08-12T18:04:21.704Z,1.38
2022-08-12T18:06:52.779Z,1.65
2022-08-12T18:09:21.885Z,1.55
2022-08-12T18:12:11.781Z,1.42
2022-08-12T18:14:41.689Z,1.65
2022-08-12T18:17:17.920Z,1.80
2022-08-12T18:20:05.693Z,1.83
2022-08-12T18:22:32.825Z,2.08
2022-08-12T18:26:13.144Z,1.63
2022-08-12T18:28:16.960Z,1.30
2022-08-12T18:30:52.748Z,1.60
2022-08-12T18:33:26.654Z,1.45
2022-08-12T18:36:32.094Z,1.40
2022-08-12T18:38:59.877Z,1.50
2022-08-12T18:41:35.778Z,1.40
2022-08-12T18:44:10.732Z,1.60
2022-08-12T18:52:19.117Z,1.63
2022-08-12T18:54:48.879Z,1.60
2022-08-12T18:58:05.690Z,1.67
2022-08-12T19:00:21.255Z,1.50
2022-08-12T19:02:50.868Z,1.60
2022-08-12T19:05:17.668Z,1.52
2022-08-12T19:07:59.956Z,1.70
2022-08-12T19:10:29.943Z,1.50
2022-08-12T19:13:23.235Z,1.50
2022-08-12T19:15:53.802Z,1.48
2022-08-12T19:18:22.350Z,1.48
2022-08-12T19:20:50.666Z,2.00
2022-08-12T19:23:21.086Z,1.58
2022-08-12T19:26:01.478Z,1.60
2022-08-12T19:28:34.437Z,1.50
2022-08-12T19:31:44.699Z,1.33
2022-08-12T19:36:07.420Z,1.63
2022-08-12T19:38:03.518Z,1.63
2022-08-12T19:40:34.820Z,1.42
2022-08-12T19:43:18.950Z,1.95
2022-08-12T19:45:50.377Z,1.45
2022-08-12T19:48:23.000Z,1.85
2022-08-12T19:50:53.416Z,1.50
2022-08-12T19:53:24.187Z,1.70
2022-08-12T19:55:53.621Z,2.05
2022-08-12T19:58:21.796Z,1.80
2022-08-12T20:00:53.222Z,1.75
2022-08-12T20:03:39.349Z,1.70
2022-08-12T20:06:15.939Z,2.20
2022-08-12T20:08:56.488Z,2.10
2022-08-12T20:12:11.084Z,1.88
2022-08-12T20:14:18.969Z,2.00
2022-08-12T20:16:51.773Z,2.03
2022-08-12T20:19:23.191Z,1.98
2022-08-12T20:21:50.425Z,2.30
2022-08-12T20:24:19.202Z,1.70
2022-08-12T20:26:46.874Z,1.80
2022-08-12T20:29:16.584Z,1.85
2022-08-12T20:31:44.177Z,1.83
2022-08-12T20:34:12.071Z,2.00
2022-08-12T20:36:44.334Z,2.00
2022-08-12T20:39:34.104Z,2.08
2022-08-12T20:42:07.266Z,1.80
2022-08-12T20:44:37.759Z,2.05
2022-08-12T20:47:17.790Z,1.90
2022-08-12T20:49:46.008Z,2.08
2022-08-12T20:52:15.195Z,1.60
2022-08-12T20:54:52.528Z,2.00
2022-08-12T20:57:20.989Z,1.80
2022-08-12T20:59:50.161Z,2.00
2022-08-12T21:02:24.415Z,1.92
2022-08-12T21:05:19.553Z,1.92
2022-08-12T21:07:52.246Z,2.15
2022-08-12T21:10:20.727Z,2.22
2022-08-12T21:12:48.364Z,1.98
2022-08-12T21:15:24.230Z,1.70
2022-08-12T21:18:11.903Z,1.83
2022-08-12T21:20:53.050Z,2.20
2022-08-12T21:23:22.641Z,1.80
2022-08-12T21:25:52.578Z,2.17
2022-08-12T21:28:21.064Z,2.22
2022-08-12T21:31:11.449Z,2.60
2022-08-12T21:33:58.688Z,2.15
2022-08-12T21:36:34.281Z,1.92
2022-08-12T21:39:18.917Z,2.03
2022-08-12T21:41:57.096Z,2.45
2022-08-12T21:45:45.977Z,2.40
2022-08-12T21:47:21.828Z,2.00
2022-08-12T21:49:54.353Z,2.05
2022-08-12T21:52:28.265Z,2.15
2022-08-12T21:55:02.201Z,2.25
2022-08-12T21:57:36.206Z,1.83
2022-08-12T22:00:16.913Z,2.03
2022-08-12T22:03:02.849Z,2.10
2022-08-12T22:05:48.270Z,1.85
2022-08-12T22:08:17.057Z,1.95
2022-08-12T22:10:52.283Z,2.42
2022-08-12T22:14:02.079Z,2.03
2022-08-12T22:16:07.253Z,2.22
2022-08-12T22:18:34.013Z,2.22
2022-08-12T22:21:00.628Z,2.10
2022-08-12T22:23:28.195Z,2.30
2022-08-12T22:25:55.282Z,2.05
2022-08-12T22:28:40.470Z,2.65
2022-08-12T22:31:10.759Z,2.03
2022-08-12T22:33:54.057Z,2.08
2022-08-12T22:36:29.085Z,2.40
2022-08-12T22:38:58.856Z,2.10
2022-08-12T22:41:45.250Z,2.13
2022-08-12T22:44:31.201Z,2.30
2022-08-12T22:47:54.174Z,2.00
2022-08-12T22:50:27.310Z,2.17
2022-08-12T22:53:16.976Z,2.45
2022-08-12T22:55:58.903Z,2.08
2022-08-12T22:58:32.013Z,2.38
2022-08-12T23:00:59.187Z,2.72
2022-08-12T23:03:48.004Z,2.30
2022-08-12T23:06:19.413Z,2.20
2022-08-12T23:08:46.224Z,2.20
2022-08-12T23:11:12.870Z,2.58
2022-08-12T23:13:47.159Z,2.35
2022-08-12T23:16:27.866Z,2.45
2022-08-12T23:19:01.434Z,2.47
2022-08-12T23:22:03.727Z,2.45
2022-08-12T23:24:17.947Z,2.60
2022-08-12T23:27:03.949Z,2.75
2022-08-12T23:29:42.826Z,2.70
2022-08-12T23:32:34.981Z,3.17
2022-08-12T23:35:02.653Z,2.67
2022-08-12T23:37:46.619Z,2.47
2022-08-12T23:40:21.135Z,2.80
2022-08-12T23:42:49.031Z,2.70
2022-08-12T23:45:20.113Z,2.72
2022-08-12T23:47:59.884Z,2.40
2022-08-12T23:50:33.993Z,2.92
2022-08-12T23:53:03.416Z,2.60
2022-08-12T23:55:35.788Z,2.60
2022-08-12T23:58:21.632Z,2.72
